Clovis ASC Data

Date Time Air Temperature Relative Humidity Dewpoint Windchill Heat Index Wind Speed Wind Dir. Rain Solar Radiation Soil Temperature Soil Temperature
2m 2m 3m 3m 5cm 10cm
US/Mountain F % F F F MPH deg in MJ/m^2 F F
max avg avg
2020-08-01 00:05:00 70.5 51.7 51.8 70.5 70.5 4.2 6.7 5.4 305.0 287.7 0.00 0.0000000 82.2 85.3
2020-08-01 00:10:00 70.1 49.2 50.2 70.1 70.1 5.1 7.6 6.1 289.4 302.4 0.00 0.0000000 82.1 85.2
2020-08-01 00:15:00 70.3 50.1 50.8 70.3 70.3 2.4 5.3 3.4 223.9 250.3 0.00 0.0000000 82.0 85.1
2020-08-01 00:20:00 70.2 49.8 50.6 70.2 70.2 0.0 2.4 0.8 39.4 194.5 0.00 0.0000000 81.9 85.0
2020-08-01 00:25:00 69.7 51.6 51.2 69.7 69.7 2.4 2.4 0.8 103.3 91.8 0.00 0.0000000 81.8 84.9
2020-08-01 00:30:00 69.1 53.2 51.4 69.1 69.1 1.3 2.4 1.6 1.3 74.2 0.00 0.0000000 81.6 84.8
2020-08-01 00:35:00 68.9 56.1 52.6 68.9 68.9 3.7 4.6 3.3 287.3 294.6 0.00 0.0000000 81.5 84.7
2020-08-01 00:40:00 67.4 61.3 53.6 67.4 67.4 3.7 4.7 4.1 269.6 288.2 0.00 0.0000000 81.4 84.6
2020-08-01 00:45:00 67.1 62.2 53.7 67.1 67.1 3.8 4.0 3.2 263.1 260.8 0.00 0.0000000 81.2 84.5
2020-08-01 00:50:00 66.5 64.1 54.0 66.5 66.5 4.0 4.2 3.6 284.0 282.5 0.00 0.0000000 81.1 84.4
2020-08-01 00:55:00 65.8 67.5 54.8 65.8 65.8 3.5 4.4 3.8 308.9 280.8 0.00 0.0000000 80.9 84.3
2020-08-01 01:00:00 66.3 65.1 54.2 66.3 66.3 3.7 4.2 3.6 345.4 346.4 0.00 0.0000000 80.8 84.2
2020-08-01 01:05:00 66.0 67.3 54.8 66.0 66.0 3.8 4.9 4.4 307.6 323.8 0.00 0.0000000 80.7 84.1
2020-08-01 01:10:00 65.8 66.8 54.4 65.8 65.8 2.6 4.0 3.5 1.5 317.6 0.00 0.0000000 80.5 84.0
2020-08-01 01:15:00 65.7 68.2 54.9 65.7 65.7 2.1 6.3 3.9 78.1 43.8 0.00 0.0000000 80.4 83.9
2020-08-01 01:20:00 66.8 61.8 53.3 66.8 66.8 1.2 3.1 2.1 303.0 355.8 0.00 0.0000000 80.3 83.8
2020-08-01 01:25:00 67.7 60.1 53.3 67.7 67.7 3.7 3.7 2.7 24.4 7.0 0.00 0.0000000 80.1 83.7
2020-08-01 01:30:00 67.6 62.0 54.1 67.6 67.6 2.8 4.4 3.2 36.6 26.1 0.00 0.0000000 80.0 83.6
2020-08-01 01:35:00 67.5 61.9 54.0 67.5 67.5 0.8 2.6 1.7 327.9 353.0 0.00 0.0000000 79.9 83.5
2020-08-01 01:40:00 67.1 64.2 54.6 67.1 67.1 1.7 1.9 1.0 241.1 276.1 0.00 0.0000000 79.7 83.4
2020-08-01 01:45:00 65.6 67.8 54.7 65.6 65.6 0.0 1.7 0.3 31.9 65.5 0.00 0.0000000 79.6 83.3
2020-08-01 01:50:00 65.4 67.4 54.3 65.4 65.4 1.0 2.4 0.8 332.4 353.5 0.00 0.0000000 79.5 83.2
2020-08-01 01:55:00 64.5 70.8 54.8 64.5 64.5 1.9 2.8 2.1 333.8 328.6 0.00 0.0000000 79.4 83.0
2020-08-01 02:00:00 64.8 71.5 55.4 64.8 64.8 4.0 4.4 2.8 47.0 30.2 0.00 0.0000000 79.3 83.0
2020-08-01 02:05:00 65.1 72.4 56.0 65.1 65.1 2.1 4.2 3.1 23.7 41.4 0.00 0.0000000 79.2 82.9
2020-08-01 02:10:00 65.6 73.1 56.8 65.6 65.6 3.3 4.0 2.9 50.8 33.4 0.00 0.0000000 79.1 82.7
2020-08-01 02:15:00 64.8 74.7 56.6 64.8 64.8 2.1 4.6 3.6 84.0 56.6 0.00 0.0000000 78.9 82.7
2020-08-01 02:20:00 63.5 80.7 57.5 63.5 63.5 3.7 4.2 2.9 97.9 87.6 0.00 0.0000000 78.8 82.5
2020-08-01 02:25:00 62.9 80.3 56.8 62.9 62.9 3.0 3.7 3.1 115.8 110.3 0.00 0.0000000 78.7 82.5
2020-08-01 02:30:00 62.9 80.8 56.9 62.9 62.9 2.1 3.5 2.6 150.1 133.6 0.00 0.0000000 78.6 82.4
2020-08-01 02:35:00 62.4 82.5 57.0 62.4 62.4 2.6 2.6 1.8 99.4 119.1 0.00 0.0000000 78.5 82.3
2020-08-01 02:40:00 62.3 80.9 56.4 62.3 62.3 3.7 3.7 2.9 70.3 86.0 0.00 0.0000000 78.4 82.2
2020-08-01 02:45:00 62.7 78.7 56.0 62.7 62.7 3.8 5.3 4.6 45.4 62.8 0.00 0.0000000 78.3 82.1
2020-08-01 02:50:00 63.1 76.3 55.5 63.1 63.1 3.0 4.6 3.3 61.0 59.2 0.00 0.0000000 78.2 82.0
2020-08-01 02:55:00 63.2 76.9 55.8 63.2 63.2 1.9 2.6 2.1 123.0 93.0 0.00 0.0000000 78.1 81.9
2020-08-01 03:00:00 62.9 78.5 56.1 62.9 62.9 0.0 2.2 1.3 146.7 113.8 0.00 0.0000000 78.0 81.8
2020-08-01 03:05:00 62.4 80.7 56.4 62.4 62.4 2.1 2.2 0.9 186.8 170.9 0.00 0.0000000 77.9 81.7
2020-08-01 03:10:00 61.9 81.5 56.2 61.9 61.9 3.0 3.7 3.1 235.6 215.3 0.00 0.0000000 77.8 81.6
2020-08-01 03:15:00 61.9 80.3 55.7 61.9 61.9 1.3 3.1 2.2 350.2 289.2 0.00 0.0000000 77.7 81.6
2020-08-01 03:20:00 62.1 74.5 53.9 62.1 62.1 4.2 4.2 1.4 296.9 349.2 0.00 0.0000000 77.5 81.5
2020-08-01 03:25:00 60.6 83.3 55.5 60.6 60.6 3.5 4.9 4.2 277.9 278.7 0.00 0.0000000 77.4 81.4
2020-08-01 03:30:00 60.5 81.7 54.9 60.5 60.5 3.3 3.8 3.2 319.2 292.8 0.00 0.0000000 77.3 81.3
2020-08-01 03:35:00 60.0 81.4 54.3 60.0 60.0 3.1 3.5 3.1 294.1 300.2 0.00 0.0000000 77.2 81.2
2020-08-01 03:40:00 59.7 84.5 55.0 59.7 59.7 4.2 4.4 3.6 261.1 280.0 0.00 0.0000000 77.1 81.1
2020-08-01 03:45:00 60.4 81.8 54.8 60.4 60.4 3.8 4.7 4.1 315.6 282.8 0.00 0.0000000 77.0 81.0
2020-08-01 03:50:00 59.7 83.3 54.6 59.7 59.7 3.5 4.0 3.4 276.2 295.5 0.00 0.0000000 76.9 80.9
2020-08-01 03:55:00 59.8 80.5 53.8 59.8 59.8 4.2 4.4 3.7 318.0 307.8 0.00 0.0000000 76.7 80.8
2020-08-01 04:00:00 59.4 81.8 53.9 59.4 59.4 3.0 4.0 3.4 296.2 302.0 0.00 0.0000000 76.6 80.7
2020-08-01 04:05:00 59.9 80.8 54.0 59.9 59.9 3.7 3.7 3.2 338.0 326.3 0.00 0.0000000 76.5 80.6
2020-08-01 04:10:00 61.2 80.1 55.0 61.2 61.2 3.7 3.8 3.6 320.7 335.0 0.00 0.0000000 76.4 80.5
2020-08-01 04:15:00 61.8 78.0 54.9 61.8 61.8 4.6 4.7 4.4 347.9 336.9 0.00 0.0000000 76.3 80.4
2020-08-01 04:20:00 61.4 78.0 54.5 61.4 61.4 4.0 4.9 4.3 322.5 332.6 0.00 0.0000000 76.2 80.3
2020-08-01 04:25:00 60.2 81.6 54.6 60.2 60.2 3.8 4.2 3.7 323.2 319.4 0.00 0.0000000 76.0 80.2
2020-08-01 04:30:00 59.5 82.3 54.1 59.5 59.5 4.6 4.6 4.1 316.5 316.2 0.00 0.0000000 76.0 80.1
2020-08-01 04:35:00 59.6 81.0 53.8 59.6 59.6 3.5 4.9 4.5 345.4 324.5 0.00 0.0000000 75.8 80.1
2020-08-01 04:40:00 60.5 79.3 54.0 60.5 60.5 4.6 5.3 4.2 345.5 350.0 0.00 0.0000000 75.8 80.0
2020-08-01 04:45:00 59.7 82.4 54.4 59.7 59.7 4.4 5.1 4.6 329.3 337.2 0.00 0.0000000 75.7 79.9
2020-08-01 04:50:00 58.8 85.1 54.4 58.8 58.8 4.2 4.7 4.2 317.2 321.9 0.00 0.0000000 75.5 79.8
2020-08-01 04:55:00 58.3 84.5 53.7 58.3 58.3 3.3 4.2 3.5 310.9 309.4 0.00 0.0000000 75.4 79.7
2020-08-01 05:00:00 58.4 83.8 53.5 58.4 58.4 4.6 4.7 4.0 332.6 320.9 0.00 0.0000000 75.3 79.6
2020-08-01 05:05:00 59.3 82.6 54.0 59.3 59.3 4.0 6.2 4.6 9.5 353.2 0.00 0.0000000 75.2 79.5
2020-08-01 05:10:00 59.0 83.8 54.1 59.0 59.0 7.4 8.7 6.8 325.8 347.3 0.00 0.0000000 75.1 79.4
2020-08-01 05:15:00 59.3 81.8 53.7 59.3 59.3 5.8 6.9 5.4 348.4 344.8 0.00 0.0000000 75.0 79.3
2020-08-01 05:20:00 59.6 81.3 53.9 59.6 59.6 6.3 7.8 6.3 349.7 349.0 0.00 0.0000000 74.9 79.3
2020-08-01 05:25:00 59.6 81.1 53.8 59.6 59.6 6.9 8.0 6.6 344.9 352.5 0.00 0.0000000 74.8 79.2
2020-08-01 05:30:00 59.5 80.9 53.6 59.5 59.5 7.4 7.6 6.9 332.2 337.7 0.00 0.0000000 74.7 79.1
2020-08-01 05:35:00 59.4 81.2 53.6 59.4 59.4 6.3 7.4 6.0 349.6 344.1 0.00 0.0000000 74.6 79.0
2020-08-01 05:40:00 59.2 81.9 53.7 59.2 59.2 4.6 6.7 5.2 352.1 345.4 0.00 0.0000000 74.5 78.9
2020-08-01 05:45:00 59.1 82.1 53.6 59.1 59.1 5.5 6.5 5.3 336.9 344.4 0.00 0.0000000 74.4 78.8
2020-08-01 05:50:00 58.9 83.0 53.7 58.9 58.9 7.8 8.8 7.2 338.9 332.9 0.00 0.0000000 74.3 78.7
2020-08-01 05:55:00 58.9 82.7 53.7 58.9 58.9 6.5 8.0 6.4 347.5 349.4 0.00 0.0000000 74.2 78.6
2020-08-01 06:00:00 58.7 82.8 53.5 58.7 58.7 4.2 6.5 5.3 56.3 352.8 0.00 0.0000000 74.1 78.5
2020-08-01 06:05:00 58.6 83.5 53.6 58.6 58.6 6.0 6.3 5.0 328.3 18.4 0.00 0.0003031 74.0 78.5
2020-08-01 06:10:00 58.7 83.2 53.7 58.7 58.7 5.8 6.2 4.8 10.2 6.9 0.00 0.0019258 73.9 78.4
2020-08-01 06:15:00 59.6 79.8 53.4 59.6 59.6 3.5 6.5 5.0 43.4 356.7 0.00 0.0067493 73.9 78.3
2020-08-01 06:20:00 59.8 80.1 53.7 59.8 59.8 3.8 5.3 3.0 300.4 357.8 0.00 0.0105281 73.8 78.2
2020-08-01 06:25:00 59.0 83.6 54.1 59.0 59.0 4.4 4.9 4.1 337.9 320.0 0.00 0.0144947 73.7 78.2
2020-08-01 06:30:00 59.0 83.4 54.0 59.0 59.0 4.7 5.5 4.9 1.9 332.6 0.00 0.0184389 73.6 78.1
2020-08-01 06:35:00 59.9 80.1 53.8 59.9 59.9 3.0 5.8 4.0 0.2 16.8 0.00 0.0226574 73.6 78.0
2020-08-01 06:40:00 61.0 76.7 53.6 61.0 61.0 4.6 5.5 4.5 18.2 10.7 0.00 0.0269601 73.5 77.9
2020-08-01 06:45:00 61.4 75.7 53.6 61.4 61.4 4.2 4.9 3.8 343.6 20.6 0.00 0.0310183 73.5 77.8
2020-08-01 06:50:00 62.4 74.4 54.2 62.4 62.4 2.6 4.0 2.1 47.5 25.4 0.00 0.0349462 73.4 77.8
2020-08-01 06:55:00 63.5 71.8 54.2 63.5 63.5 1.9 2.6 1.8 54.3 38.7 0.00 0.0390489 73.4 77.7
2020-08-01 07:00:00 63.5 72.0 54.3 63.5 63.5 3.1 3.8 3.2 46.4 45.5 0.00 0.0435711 73.4 77.6
2020-08-01 07:05:00 63.9 70.4 54.1 63.9 63.9 2.2 3.3 2.7 339.1 13.9 0.00 0.0478697 73.4 77.6
2020-08-01 07:10:00 64.8 70.2 54.9 64.8 64.8 2.8 3.0 2.1 50.0 22.2 0.00 0.0522312 73.4 77.5
2020-08-01 07:15:00 65.0 69.0 54.6 65.0 65.0 3.3 4.4 3.1 36.2 35.1 0.00 0.0568765 73.5 77.5
2020-08-01 07:20:00 65.5 68.6 54.9 65.5 65.5 2.4 3.5 2.6 55.4 45.7 0.00 0.0616466 73.6 77.5
2020-08-01 07:25:00 66.1 65.9 54.4 66.1 66.1 2.2 3.3 2.4 47.9 58.1 0.00 0.0663028 73.7 77.4
2020-08-01 07:30:00 67.3 63.4 54.5 67.3 67.3 2.2 2.6 2.0 57.5 44.9 0.00 0.0713205 73.7 77.4
2020-08-01 07:35:00 68.7 60.2 54.4 68.7 68.7 0.8 3.0 1.5 335.2 9.0 0.00 0.0757964 73.9 77.3
2020-08-01 07:40:00 70.7 56.4 54.4 70.7 70.7 0.0 0.8 0.0 171.1 321.9 0.00 0.0800131 74.0 77.3
2020-08-01 07:45:00 72.5 52.2 54.0 72.5 72.5 0.8 1.3 0.2 347.5 137.4 0.00 0.0854018 74.2 77.3
2020-08-01 07:50:00 72.6 52.2 54.1 72.6 72.6 3.1 3.5 2.5 345.3 348.1 0.00 0.0910215 74.4 77.3
2020-08-01 07:55:00 72.3 52.6 54.0 72.3 72.3 3.8 4.2 3.4 16.7 359.0 0.00 0.0959880 74.5 77.3
2020-08-01 08:00:00 72.2 52.9 54.1 72.2 72.2 3.5 6.0 4.5 84.9 354.7 0.00 0.1015883 74.8 77.4
2020-08-01 08:05:00 72.2 51.9 53.6 72.2 72.2 4.7 5.5 3.9 339.2 354.7 0.00 0.1071506 74.9 77.4
2020-08-01 08:10:00 71.8 51.5 53.0 71.8 71.8 3.0 5.1 4.2 345.7 345.9 0.00 0.1127346 75.2 77.5
2020-08-01 08:15:00 72.4 51.7 53.7 72.4 72.4 3.1 4.2 3.2 325.6 352.9 0.00 0.1180892 75.4 77.5
2020-08-01 08:20:00 72.9 50.7 53.6 72.9 72.9 3.8 4.4 3.5 351.1 348.5 0.00 0.1234859 75.7 77.6
2020-08-01 08:25:00 73.6 48.2 52.8 73.6 73.6 1.5 4.2 3.0 327.2 327.5 0.00 0.1285563 75.9 77.6
2020-08-01 08:30:00 74.7 43.3 50.9 74.7 74.7 3.3 3.8 2.7 339.1 345.9 0.00 0.1339952 76.2 77.7
2020-08-01 08:35:00 75.7 42.7 51.4 75.7 75.7 3.8 3.8 2.5 351.5 339.8 0.00 0.1387997 76.5 77.8
2020-08-01 08:40:00 75.7 40.6 50.1 75.7 75.7 4.6 5.6 3.8 315.1 273.8 0.00 0.1440177 76.8 77.9
2020-08-01 08:45:00 76.1 36.5 47.6 76.1 76.1 5.6 6.7 4.1 304.2 287.2 0.00 0.1497080 77.1 78.0
2020-08-01 08:50:00 76.3 36.2 47.6 76.3 76.3 4.4 6.7 4.6 304.9 268.6 0.00 0.1551176 77.4 78.1
2020-08-01 08:55:00 76.5 36.1 47.6 76.5 76.5 4.6 7.8 5.5 296.7 288.1 0.00 0.1608114 77.7 78.2
2020-08-01 09:00:00 76.5 39.3 49.9 76.5 76.5 5.6 8.3 6.2 240.2 258.3 0.00 0.1662062 78.0 78.4
2020-08-01 09:05:00 76.8 39.3 50.2 76.8 76.8 3.7 8.8 5.6 280.0 246.5 0.00 0.1709953 78.2 78.5
2020-08-01 09:10:00 77.0 39.6 50.5 77.0 77.0 9.2 9.2 5.9 287.0 277.0 0.00 0.1759082 78.5 78.6
2020-08-01 09:15:00 76.9 42.7 52.5 76.9 76.9 8.3 8.8 5.5 322.5 288.0 0.00 0.1808136 78.7 78.8
2020-08-01 09:20:00 76.6 42.3 52.0 76.6 76.6 6.0 9.2 7.0 282.0 319.6 0.00 0.1856557 79.0 78.9
2020-08-01 09:25:00 76.8 42.0 52.0 76.8 76.8 4.0 7.6 4.6 304.1 287.0 0.00 0.1904305 79.2 79.1
2020-08-01 09:30:00 77.3 42.4 52.7 77.3 77.3 6.2 8.3 5.6 266.2 303.4 0.00 0.1952300 79.4 79.3
2020-08-01 09:35:00 78.1 40.5 52.2 78.1 78.1 5.6 8.7 5.9 314.7 287.8 0.00 0.2002143 79.7 79.4
2020-08-01 09:40:00 77.8 41.5 52.6 77.8 77.8 7.8 8.5 5.6 258.5 291.9 0.00 0.2043560 79.9 79.6
2020-08-01 09:45:00 78.5 40.4 52.4 78.5 78.5 7.6 9.0 5.8 1.9 287.8 0.00 0.2089997 80.2 79.8
2020-08-01 09:50:00 78.7 39.4 52.0 78.7 78.7 6.2 11.7 7.3 298.1 326.0 0.00 0.2146767 80.5 80.0
2020-08-01 09:55:00 78.4 41.8 53.3 78.4 78.4 4.7 9.9 7.3 330.9 325.0 0.00 0.2189666 80.7 80.2
2020-08-01 10:00:00 79.0 40.5 53.0 79.0 79.0 7.6 9.7 6.0 338.8 335.3 0.00 0.2231329 81.0 80.3
2020-08-01 10:05:00 79.2 41.9 54.1 79.2 79.2 6.2 9.9 7.9 326.6 325.9 0.00 0.2274106 81.3 80.5
2020-08-01 10:10:00 79.4 40.4 53.2 79.4 79.4 7.1 11.3 8.0 308.8 322.8 0.00 0.2320987 81.6 80.8
2020-08-01 10:15:00 80.3 38.1 52.4 80.3 80.3 4.4 10.1 7.5 341.3 344.5 0.00 0.2360074 82.0 81.0
2020-08-01 10:20:00 80.0 38.2 52.2 80.0 80.0 6.0 11.9 8.4 334.4 330.3 0.00 0.2399020 82.3 81.2
2020-08-01 10:25:00 79.7 38.5 52.2 79.7 79.7 9.6 12.8 8.1 333.6 339.5 0.00 0.2440117 82.6 81.4
2020-08-01 10:30:00 80.8 38.8 53.4 80.8 80.8 9.9 13.7 8.3 326.8 331.3 0.00 0.2480665 82.9 81.6
2020-08-01 10:35:00 80.3 38.2 52.5 80.3 80.3 4.4 9.9 5.9 338.1 337.2 0.00 0.2510028 83.3 81.8
2020-08-01 10:40:00 81.0 36.9 52.2 81.0 81.0 7.4 12.4 9.1 325.0 321.7 0.00 0.2554976 83.7 82.1
2020-08-01 10:45:00 81.2 37.7 53.0 81.2 81.2 8.7 11.3 6.8 311.5 297.1 0.00 0.2591335 84.0 82.3
2020-08-01 10:50:00 81.8 36.5 52.6 81.8 81.8 5.8 7.2 5.1 297.0 322.5 0.00 0.2617581 84.3 82.5
2020-08-01 10:55:00 82.2 36.3 52.8 82.2 82.2 8.3 11.3 6.3 335.7 337.8 0.00 0.2653897 84.7 82.8
2020-08-01 11:00:00 82.9 33.1 50.9 82.9 82.9 4.7 13.5 7.5 0.5 358.5 0.00 0.2688518 84.8 83.0
2020-08-01 11:05:00 83.6 30.8 49.6 83.6 83.6 7.4 12.2 9.0 16.9 351.0 0.00 0.2725048 84.8 83.3
2020-08-01 11:10:00 83.1 32.7 50.8 83.1 83.1 10.1 10.1 7.6 347.2 332.9 0.00 0.2752985 84.8 83.5
2020-08-01 11:15:00 83.2 33.9 51.9 83.2 83.2 7.6 10.8 7.5 340.4 348.9 0.00 0.2776139 84.7 83.8
2020-08-01 11:20:00 83.9 30.8 49.9 83.9 83.9 8.1 13.0 8.0 7.8 328.2 0.00 0.2806089 84.6 84.0
2020-08-01 11:25:00 83.6 31.5 50.2 83.6 83.6 7.2 12.4 8.3 0.5 347.4 0.00 0.2828629 84.5 84.3
2020-08-01 11:30:00 83.3 32.1 50.5 83.3 83.3 9.6 14.4 7.9 329.9 13.1 0.00 0.2846151 84.3 84.5
2020-08-01 11:35:00 84.0 31.1 50.2 84.0 84.0 7.4 14.0 10.4 339.2 324.2 0.00 0.2873055 84.2 84.8
2020-08-01 11:40:00 83.9 31.9 50.8 83.9 83.9 6.7 12.1 7.2 3.8 346.2 0.00 0.2897702 84.1 85.0
2020-08-01 11:45:00 84.8 29.1 49.1 84.8 84.8 9.4 9.4 6.6 9.0 1.7 0.00 0.2926930 83.9 85.3
2020-08-01 11:50:00 84.4 27.8 47.5 84.4 84.4 9.9 10.3 7.5 46.1 16.1 0.00 0.2939429 83.8 85.5
2020-08-01 11:55:00 85.6 26.3 47.1 85.6 85.6 4.9 11.2 6.6 7.1 13.7 0.00 0.2962068 83.7 85.8
2020-08-01 12:00:00 85.3 27.5 48.1 85.3 85.3 5.5 11.9 7.6 342.2 23.1 0.00 0.2977164 83.6 86.0
2020-08-01 12:05:00 85.8 26.9 47.9 85.8 85.8 9.4 13.0 8.1 351.0 357.5 0.00 0.2993030 83.6 86.3
2020-08-01 12:10:00 85.2 27.2 47.7 85.2 85.2 9.0 14.7 10.1 317.3 340.7 0.00 0.3006710 83.5 86.5
2020-08-01 12:15:00 85.3 27.4 47.9 85.3 85.3 9.7 12.8 7.7 8.4 345.4 0.00 0.3017819 83.5 86.8
2020-08-01 12:20:00 85.9 26.8 47.9 85.9 85.9 7.8 11.7 7.7 5.0 15.4 0.00 0.3031640 83.6 87.0
2020-08-01 12:25:00 85.9 26.1 47.2 85.9 85.9 6.7 11.5 8.0 20.6 25.5 0.00 0.3045652 84.0 87.2
2020-08-01 12:30:00 85.5 26.3 47.0 85.5 85.5 7.6 12.6 8.6 68.3 45.3 0.00 0.3051920 84.5 87.4
2020-08-01 12:35:00 85.7 26.7 47.6 85.7 85.7 6.9 11.3 8.1 1.7 29.2 0.00 0.3061346 85.1 87.6
2020-08-01 12:40:00 86.0 26.0 47.2 86.0 86.0 7.1 13.1 8.5 329.6 27.2 0.00 0.3067007 85.6 87.8
2020-08-01 12:45:00 85.2 27.9 48.3 85.2 85.2 9.6 12.1 7.8 339.5 16.4 0.00 0.3063753 86.3 88.0
2020-08-01 12:50:00 86.5 26.2 47.8 86.5 86.5 11.7 15.3 12.0 344.6 343.3 0.00 0.3069127 86.9 88.2
2020-08-01 12:55:00 87.1 27.4 49.5 87.1 87.1 5.5 14.6 10.4 30.8 346.4 0.00 0.3068881 87.5 88.4
2020-08-01 13:00:00 85.9 27.1 48.2 85.9 85.9 7.2 13.1 8.8 4.7 35.7 0.00 0.3060255 88.1 88.6
2020-08-01 13:05:00 87.5 26.3 48.7 87.5 87.5 11.7 15.3 10.4 347.6 359.2 0.00 0.3057465 88.6 88.7
2020-08-01 13:10:00 87.2 26.9 49.0 87.2 87.2 7.6 15.5 9.7 340.7 346.8 0.00 0.3063973 89.2 88.9
2020-08-01 13:15:00 87.4 27.6 49.9 87.4 87.4 11.0 14.0 7.8 2.3 9.8 0.00 0.3082457 89.7 89.1
2020-08-01 13:20:00 87.5 25.1 47.5 87.5 87.5 8.5 16.9 9.3 9.0 11.6 0.00 0.3090441 90.2 89.2
2020-08-01 13:25:00 87.1 25.4 47.5 87.1 87.1 13.0 13.3 8.9 45.4 23.4 0.00 0.3056923 90.7 89.4
2020-08-01 13:30:00 87.8 24.4 47.0 87.8 87.8 11.3 12.4 7.2 3.1 11.4 0.00 0.3046888 91.2 89.6
2020-08-01 13:35:00 87.7 24.1 46.5 87.7 87.7 9.6 14.2 8.6 33.6 23.8 0.00 0.3036857 91.7 89.8
2020-08-01 13:40:00 87.6 25.0 47.4 87.6 87.6 13.0 13.0 9.6 24.9 8.9 0.00 0.3024370 92.1 90.0
2020-08-01 13:45:00 87.7 24.5 47.0 87.7 87.7 10.3 13.1 9.4 31.6 22.0 0.00 0.3024739 92.5 90.2
2020-08-01 13:50:00 87.1 24.6 46.6 87.1 87.1 7.8 13.5 9.9 335.4 346.8 0.00 0.3012466 93.0 90.4
2020-08-01 13:55:00 87.7 24.2 46.6 87.7 87.7 11.3 15.1 9.3 36.4 17.4 0.00 0.2994064 93.3 90.5
2020-08-01 14:00:00 87.4 24.0 46.2 87.4 87.4 16.2 17.1 12.2 345.4 348.2 0.00 0.2997121 93.7 90.7
2020-08-01 14:05:00 87.2 24.3 46.3 87.2 87.2 8.1 17.2 11.6 53.3 349.3 0.00 0.2979316 94.0 90.9
2020-08-01 14:10:00 88.1 22.4 45.0 88.1 88.1 12.4 12.4 8.1 324.4 20.9 0.00 0.2959521 94.3 91.1
2020-08-01 14:15:00 88.0 21.3 43.6 88.0 88.0 11.3 19.0 13.8 0.1 343.2 0.00 0.2943870 94.6 91.3
2020-08-01 14:20:00 87.5 24.2 46.5 87.5 87.5 6.3 12.4 9.1 2.5 342.1 0.00 0.2915225 94.9 91.5
2020-08-01 14:25:00 88.4 23.9 46.9 88.4 88.4 6.7 13.0 8.4 74.8 0.4 0.00 0.2864776 95.1 91.6
2020-08-01 14:30:00 87.8 23.3 45.8 87.8 87.8 9.6 15.5 9.0 24.9 29.6 0.00 0.2848459 95.4 91.8
2020-08-01 14:35:00 87.8 19.0 40.4 87.8 87.8 11.3 15.5 10.5 343.2 7.6 0.00 0.2827275 95.7 92.0
2020-08-01 14:40:00 88.1 18.5 39.9 88.1 88.1 10.1 16.2 12.4 290.7 337.1 0.00 0.2817605 95.9 92.1
2020-08-01 14:45:00 88.9 21.1 44.1 88.9 88.9 11.7 18.3 11.8 0.0 349.7 0.00 0.2792590 96.2 92.3
2020-08-01 14:50:00 89.2 19.6 42.4 89.2 89.2 7.4 12.2 8.6 45.2 357.9 0.00 0.2758227 96.3 92.4
2020-08-01 14:55:00 88.9 20.7 43.6 88.9 88.9 8.3 11.0 8.2 20.2 13.2 0.00 0.2724892 96.5 92.6
2020-08-01 15:00:00 88.2 21.7 44.2 88.2 88.2 9.6 10.8 6.9 334.0 25.9 0.00 0.2667931 96.7 92.7
2020-08-01 15:05:00 88.9 19.2 41.6 88.9 88.9 10.3 13.3 9.7 347.8 1.5 0.00 0.2650429 96.9 92.9
2020-08-01 15:10:00 88.6 18.0 39.7 88.6 88.6 7.6 14.4 8.9 343.1 343.6 0.00 0.2640034 97.1 93.0
2020-08-01 15:15:00 89.0 19.8 42.4 89.0 89.0 7.1 13.3 8.6 32.3 358.1 0.00 0.2610410 97.3 93.1
2020-08-01 15:20:00 88.9 19.5 42.0 88.9 88.9 7.4 13.3 8.6 0.0 345.6 0.00 0.2576468 97.4 93.3
2020-08-01 15:25:00 88.6 21.0 43.6 88.6 88.6 6.0 13.0 9.2 335.3 9.1 0.00 0.2528893 97.6 93.4
2020-08-01 15:30:00 88.4 18.0 39.5 88.4 88.4 10.1 16.4 9.5 335.8 355.5 0.00 0.2498704 97.8 93.5
2020-08-01 15:35:00 88.8 20.7 43.4 88.8 88.8 11.7 11.9 9.2 329.5 342.9 0.00 0.2453302 97.9 93.6
2020-08-01 15:40:00 87.8 22.8 45.1 87.8 87.8 7.4 16.9 11.3 39.2 342.0 0.00 0.2399565 98.0 93.7
2020-08-01 15:45:00 88.7 21.1 43.9 88.7 88.7 4.6 11.7 7.6 43.5 21.4 0.00 0.2348872 98.1 93.9
2020-08-01 15:50:00 89.4 21.0 44.3 89.4 89.4 2.2 12.8 6.2 101.9 38.4 0.00 0.2312434 98.2 94.0
2020-08-01 15:55:00 89.6 19.3 42.2 89.6 89.6 11.2 11.2 5.4 20.4 20.5 0.00 0.2260963 98.2 94.1
2020-08-01 16:00:00 89.3 12.4 30.9 89.3 89.3 7.1 14.0 9.2 19.9 3.5 0.00 0.2230049 98.4 94.1
2020-08-01 16:05:00 89.4 17.8 40.0 89.4 89.4 7.1 12.4 8.3 17.6 1.0 0.00 0.2197710 98.4 94.2
2020-08-01 16:10:00 89.1 19.8 42.5 89.1 89.1 5.8 10.3 7.0 342.2 22.6 0.00 0.2142066 98.5 94.4
2020-08-01 16:15:00 89.3 18.9 41.5 89.3 89.3 4.9 9.2 5.6 324.3 347.0 0.00 0.2097906 98.5 94.4
2020-08-01 16:20:00 89.3 21.9 45.4 89.3 89.3 4.2 9.9 6.2 62.0 15.0 0.00 0.2062289 98.6 94.5
2020-08-01 16:25:00 88.4 22.9 45.9 88.4 88.4 3.8 12.6 8.2 48.6 38.5 0.00 0.2042352 98.6 94.6
2020-08-01 16:30:00 88.1 24.8 47.6 88.1 88.1 9.7 9.7 6.7 87.4 82.0 0.00 0.2060714 98.6 94.6
2020-08-01 16:35:00 87.9 24.5 47.2 87.9 87.9 11.2 16.5 11.4 35.6 49.1 0.00 0.1927891 98.6 94.7
2020-08-01 16:40:00 88.1 24.3 47.2 88.1 88.1 8.7 13.3 9.0 85.1 42.9 0.00 0.1862478 98.7 94.7
2020-08-01 16:45:00 88.1 24.7 47.5 88.1 88.1 5.3 12.1 8.7 23.4 38.4 0.00 0.1786939 98.6 94.8
2020-08-01 16:50:00 87.7 25.4 47.9 87.7 87.7 8.1 18.5 10.7 63.4 50.3 0.00 0.1739735 98.6 94.9
2020-08-01 16:55:00 87.4 27.6 49.9 87.4 87.4 8.0 9.9 7.8 76.6 68.9 0.00 0.1684624 98.6 94.9
2020-08-01 17:00:00 87.1 25.5 47.6 87.1 87.1 9.7 9.7 5.5 52.8 80.7 0.00 0.1456917 98.5 94.9
2020-08-01 17:05:00 87.4 28.4 50.7 87.4 87.4 7.4 11.0 8.2 73.1 71.5 0.00 0.1590645 98.4 95.0
2020-08-01 17:10:00 87.4 25.8 48.1 87.4 87.4 9.2 12.6 9.4 78.1 64.9 0.00 0.1524832 98.3 95.0
2020-08-01 17:15:00 86.9 26.9 48.8 86.9 86.9 5.8 16.4 9.2 79.8 67.9 0.00 0.1476496 98.2 95.0
2020-08-01 17:20:00 86.3 26.9 48.3 86.3 86.3 6.7 10.5 7.5 81.3 80.6 0.00 0.1433255 98.1 95.0
2020-08-01 17:25:00 85.9 27.5 48.6 85.9 85.9 9.0 14.0 10.8 119.9 72.2 0.00 0.1279939 98.0 95.0
2020-08-01 17:30:00 86.4 26.9 48.3 86.4 86.4 4.9 10.3 7.2 88.8 83.4 0.00 0.1300542 97.9 95.0
2020-08-01 17:35:00 86.6 26.0 47.7 86.6 86.6 5.6 13.3 7.9 39.6 55.1 0.00 0.1260439 97.7 95.0
2020-08-01 17:40:00 86.4 27.5 49.0 86.4 86.4 8.5 12.4 8.4 74.8 66.1 0.00 0.1204897 97.6 95.0
2020-08-01 17:45:00 86.4 25.6 47.1 86.4 86.4 9.0 13.0 10.4 55.2 58.0 0.00 0.1152822 97.4 94.9
2020-08-01 17:50:00 86.6 25.5 47.0 86.6 86.6 6.0 9.7 6.3 52.6 62.7 0.00 0.1104718 97.3 94.9
2020-08-01 17:55:00 86.4 25.8 47.3 86.4 86.4 3.7 8.5 5.4 36.7 58.9 0.00 0.1049789 97.1 94.9
2020-08-01 18:00:00 86.5 25.3 46.9 86.5 86.5 8.1 10.3 7.5 45.0 58.1 0.00 0.0997510 96.9 94.8
2020-08-01 18:05:00 86.3 25.5 46.9 86.3 86.3 5.3 10.3 7.5 49.9 32.2 0.00 0.0949686 96.7 94.7
2020-08-01 18:10:00 86.3 24.7 46.0 86.3 86.3 8.0 10.8 8.6 38.1 43.9 0.00 0.0896778 96.6 94.7
2020-08-01 18:15:00 86.1 24.8 46.0 86.1 86.1 7.2 10.3 7.0 47.0 35.6 0.00 0.0842114 96.4 94.6
2020-08-01 18:20:00 85.8 25.0 45.9 85.8 85.8 7.1 7.4 6.1 72.0 58.5 0.00 0.0799849 96.2 94.6
2020-08-01 18:25:00 85.5 25.3 46.0 85.5 85.5 6.9 10.8 7.2 72.4 56.0 0.00 0.0753064 96.0 94.5
2020-08-01 18:30:00 84.9 27.2 47.4 84.9 84.9 7.2 10.6 7.1 78.0 76.8 0.00 0.0705505 95.7 94.4
2020-08-01 18:35:00 85.4 24.8 45.4 85.4 85.4 9.9 11.7 9.1 66.5 54.6 0.00 0.0662536 95.4 94.3
2020-08-01 18:40:00 85.2 25.1 45.5 85.2 85.2 9.9 12.2 9.4 61.6 63.5 0.00 0.0617764 95.2 94.2
2020-08-01 18:45:00 85.2 25.8 46.3 85.2 85.2 7.6 13.1 9.2 52.5 64.7 0.00 0.0572941 94.9 94.2
2020-08-01 18:50:00 85.0 24.5 44.8 85.0 85.0 11.7 12.2 9.7 52.7 62.5 0.00 0.0528967 94.7 94.1
2020-08-01 18:55:00 83.9 26.2 45.6 83.9 83.9 8.8 12.1 8.5 76.7 74.4 0.00 0.0485599 94.4 93.9
2020-08-01 19:00:00 84.2 25.4 45.0 84.2 84.2 8.7 11.7 9.7 59.5 66.1 0.00 0.0440931 94.1 93.8
2020-08-01 19:05:00 83.8 26.4 45.7 83.8 83.8 8.8 11.9 8.8 60.0 67.1 0.00 0.0401100 93.8 93.7
2020-08-01 19:10:00 83.6 26.3 45.4 83.6 83.6 9.4 12.1 8.6 63.3 64.4 0.00 0.0365702 93.5 93.5
2020-08-01 19:15:00 83.2 27.7 46.5 83.2 83.2 7.2 10.6 8.4 74.8 65.6 0.00 0.0325378 93.3 93.4
2020-08-01 19:20:00 82.6 27.7 45.9 82.6 82.6 7.4 11.3 8.5 57.0 62.2 0.00 0.0235568 93.0 93.2
2020-08-01 19:25:00 81.8 28.2 45.7 81.8 81.8 8.5 11.0 9.0 57.6 64.0 0.00 0.0072406 92.7 93.1
2020-08-01 19:30:00 81.4 28.0 45.2 81.4 81.4 9.0 9.7 8.3 59.0 60.5 0.00 0.0048027 92.4 93.0
2020-08-01 19:35:00 80.9 29.0 45.6 80.9 80.9 7.1 9.4 6.9 55.7 55.3 0.00 0.0034570 92.1 92.8
2020-08-01 19:40:00 80.0 30.1 45.9 80.0 80.0 5.6 7.1 5.8 66.0 55.9 0.00 0.0028647 91.8 92.6
2020-08-01 19:45:00 79.2 31.5 46.4 79.2 79.2 5.5 6.5 5.2 67.6 62.5 0.00 0.0002987 91.5 92.5
2020-08-01 19:50:00 78.3 33.2 47.0 78.3 78.3 4.9 5.8 5.1 67.0 66.2 0.00 0.0000000 91.2 92.3
2020-08-01 19:55:00 77.5 35.6 48.1 77.5 77.5 4.0 4.9 4.0 99.5 76.4 0.00 0.0000000 90.9 92.1
2020-08-01 20:00:00 76.4 38.5 49.3 76.4 76.4 3.1 4.9 3.8 96.4 92.3 0.00 0.0000000 90.6 92.0
2020-08-01 20:05:00 75.2 40.9 49.9 75.2 75.2 2.6 4.0 3.0 100.6 92.3 0.00 0.0000000 90.3 91.8
2020-08-01 20:10:00 74.6 40.0 48.7 74.6 74.6 3.5 3.5 2.3 78.9 82.9 0.00 0.0000000 90.0 91.6
2020-08-01 20:15:00 75.0 36.9 46.9 75.0 75.0 6.9 6.9 5.2 67.0 69.9 0.00 0.0000000 89.7 91.4
2020-08-01 20:20:00 75.4 35.9 46.5 75.4 75.4 6.3 7.4 6.6 70.7 67.4 0.00 0.0000000 89.4 91.3
2020-08-01 20:25:00 75.5 35.8 46.6 75.5 75.5 4.2 7.4 6.1 62.7 62.9 0.00 0.0000000 89.1 91.1
2020-08-01 20:30:00 74.9 36.4 46.5 74.9 74.9 5.1 5.8 4.7 63.5 55.0 0.00 0.0000000 88.9 90.9
2020-08-01 20:35:00 74.6 36.5 46.3 74.6 74.6 5.1 5.8 5.0 44.6 48.7 0.00 0.0000000 88.6 90.7
2020-08-01 20:40:00 74.6 36.3 46.1 74.6 74.6 4.7 6.2 5.2 61.3 54.1 0.00 0.0000000 88.3 90.5
2020-08-01 20:45:00 74.6 36.4 46.2 74.6 74.6 5.5 6.3 5.4 64.3 57.1 0.00 0.0000000 88.1 90.4
2020-08-01 20:50:00 74.1 37.2 46.3 74.1 74.1 4.7 6.5 5.2 62.1 58.0 0.00 0.0000000 87.8 90.2
2020-08-01 20:55:00 73.2 38.5 46.5 73.2 73.2 4.9 4.9 4.5 47.7 52.6 0.00 0.0000000 87.5 90.0
2020-08-01 21:00:00 72.4 39.9 46.7 72.4 72.4 3.7 4.4 3.8 61.2 57.3 0.00 0.0000000 87.3 89.9
2020-08-01 21:05:00 72.3 39.8 46.5 72.3 72.3 4.0 5.5 4.3 65.3 52.8 0.00 0.0000000 87.0 89.7
2020-08-01 21:10:00 72.0 40.2 46.5 72.0 72.0 4.0 4.7 4.0 59.4 61.1 0.00 0.0000000 86.8 89.5
2020-08-01 21:15:00 71.8 40.7 46.6 71.8 71.8 4.4 4.6 4.1 54.5 56.8 0.00 0.0000000 86.6 89.3
2020-08-01 21:20:00 71.4 40.9 46.4 71.4 71.4 4.0 4.4 4.0 61.6 58.0 0.00 0.0000000 86.4 89.2
2020-08-01 21:25:00 71.5 40.5 46.2 71.5 71.5 3.7 4.6 3.7 49.4 59.4 0.00 0.0000000 86.1 89.0
2020-08-01 21:30:00 71.7 39.4 45.7 71.7 71.7 3.0 4.9 3.7 38.7 43.6 0.00 0.0000000 85.9 88.8
2020-08-01 21:35:00 72.3 38.3 45.5 72.3 72.3 4.4 5.1 3.7 27.8 36.5 0.00 0.0000000 85.7 88.7
2020-08-01 21:40:00 73.0 37.0 45.2 73.0 73.0 3.5 4.9 3.9 20.2 32.7 0.00 0.0000000 85.5 88.5
2020-08-01 21:45:00 73.3 36.7 45.2 73.3 73.3 3.1 4.9 3.6 19.9 26.9 0.00 0.0000000 85.3 88.4
2020-08-01 21:50:00 73.0 38.7 46.3 73.0 73.0 3.1 4.4 3.4 64.3 45.8 0.00 0.0000000 85.1 88.2
2020-08-01 21:55:00 71.7 40.7 46.5 71.7 71.7 4.2 4.2 3.6 55.9 55.7 0.00 0.0000000 84.9 88.1
2020-08-01 22:00:00 70.5 43.7 47.4 70.5 70.5 4.6 4.6 4.1 73.4 65.3 0.00 0.0000000 84.7 87.9
2020-08-01 22:05:00 69.9 44.3 47.1 69.9 69.9 5.5 5.5 4.9 63.2 64.4 0.00 0.0000000 84.6 87.8
2020-08-01 22:10:00 69.6 44.7 47.2 69.6 69.6 5.1 5.8 5.4 63.3 64.7 0.00 0.0000000 84.4 87.6
2020-08-01 22:15:00 69.5 43.8 46.5 69.5 69.5 4.0 4.9 4.3 59.8 62.3 0.00 0.0000000 84.2 87.5
2020-08-01 22:20:00 69.3 43.3 46.0 69.3 69.3 3.3 4.2 3.6 63.4 61.6 0.00 0.0000000 84.0 87.3
2020-08-01 22:25:00 69.3 44.1 46.6 69.3 69.3 3.8 4.2 3.8 72.1 68.7 0.00 0.0000000 83.9 87.2
2020-08-01 22:30:00 69.6 45.2 47.4 69.6 69.6 3.8 4.2 3.8 83.6 76.8 0.00 0.0000000 83.7 87.0
2020-08-01 22:35:00 69.3 44.5 46.8 69.3 69.3 4.9 5.1 4.4 73.9 80.3 0.00 0.0000000 83.5 86.9
2020-08-01 22:40:00 69.6 42.1 45.6 69.6 69.6 6.2 6.3 5.4 91.1 87.9 0.00 0.0000000 83.4 86.8
2020-08-01 22:45:00 70.6 40.0 45.1 70.6 70.6 8.3 8.3 6.8 93.8 92.9 0.00 0.0000000 83.2 86.6
2020-08-01 22:50:00 71.2 39.4 45.2 71.2 71.2 8.0 9.0 7.2 89.3 89.9 0.00 0.0000000 83.0 86.5
2020-08-01 22:55:00 71.8 38.1 44.9 71.8 71.8 7.6 8.8 7.3 94.7 88.0 0.00 0.0000000 82.9 86.3
2020-08-01 23:00:00 72.2 37.2 44.6 72.2 72.2 7.8 9.4 7.5 78.7 87.9 0.00 0.0000000 82.7 86.2
2020-08-01 23:05:00 72.9 35.5 44.0 72.9 72.9 8.8 9.2 7.7 87.8 86.6 0.00 0.0000000 82.6 86.1
2020-08-01 23:10:00 73.4 35.2 44.2 73.4 73.4 6.5 9.2 7.3 82.4 85.7 0.00 0.0000000 82.5 86.0
2020-08-01 23:15:00 73.7 35.1 44.4 73.7 73.7 6.7 10.1 7.5 73.2 85.9 0.00 0.0000000 82.4 85.9
2020-08-01 23:20:00 73.4 35.7 44.6 73.4 73.4 7.2 8.8 6.8 86.5 86.9 0.00 0.0000000 82.3 85.7
2020-08-01 23:25:00 73.6 35.8 44.8 73.6 73.6 6.5 10.1 7.3 80.1 89.0 0.00 0.0000000 82.2 85.6
2020-08-01 23:30:00 73.3 36.0 44.7 73.3 73.3 7.6 9.2 7.4 92.8 91.9 0.00 0.0000000 82.1 85.5
2020-08-01 23:35:00 73.5 35.5 44.6 73.5 73.5 8.8 9.4 7.7 90.1 93.9 0.00 0.0000000 82.0 85.4
2020-08-01 23:40:00 73.4 36.4 45.1 73.4 73.4 8.0 10.6 7.6 85.4 95.0 0.00 0.0000000 81.9 85.3
2020-08-01 23:45:00 73.3 36.8 45.3 73.3 73.3 9.7 10.5 8.0 96.1 96.6 0.00 0.0000000 81.8 85.2
2020-08-01 23:50:00 73.2 38.4 46.3 73.2 73.2 8.0 10.3 8.4 105.6 94.9 0.00 0.0000000 81.7 85.1
2020-08-01 23:55:00 73.1 39.4 46.9 73.1 73.1 5.5 11.2 7.6 119.3 108.9 0.00 0.0000000 81.6 85.0
2020-08-02 00:00:00 72.6 40.7 47.4 72.6 72.6 7.1 8.8 7.0 109.2 106.1 0.00 0.0000000 81.6 84.9

Data is courtesy of the NM Climate Center. DO NOT USE IN LEGAL PROCEEDINGS.